Аэропорт
Хабаровск (UHHH)

 UHHH / KHV
ЗЦ Хабаровск
Хабаровск (UHHH)
Хабаровск (UHHH)
 48.52800, 135.18800  / 244 ft

 UHHH 202000Z 26007MPS CAVOK M17/M21 Q1017 R23L/090060 NOSIG RMK QFE756/1008
 TAF UHHH 201346Z 2015/2121 23004MPS 9999 NSC TEMPO 2015/2023 3100 BR FU SCT011 TEMPO 2101/2110 22009MPS
uhhh_aip_1605
показать схемы
Название сценария Тип сценария Flight Simulator 9 Flight Simulator X Prepar3D v2 Prepar3D v3 Prepar3D v4 xPlane
uhhh-scenery-fs9-1104 бесплатный
uhhh-scenery-fs9-1406 бесплатный
uhhh-scenery-xpl-1007 бесплатный
UHHH_2017_X_P3D4 бесплатный


2019 © VATRUS division (Privacy Policy)